Time;durP1;ratioP1;P1;durP2;ratioP2;P2;SDS_P1;SDS_P2;PMS_P1;PMS_P2;Temp;Humidity;BMP_temperature;BMP_pressure;BME280_temperature;BME280_humidity;BME280_pressure;Samples;Min_cycle;Max_cycle;Signal;HPM_P1;HPM_P2
2022/03/05 00:00:44;;;;;;;11.63;6.60;;;1.40;99.90;;;;;;5051568;28;20132;-70
2022/03/05 00:03:11;;;;;;;12.30;6.72;;;1.40;99.90;;;;;;5051710;28;20037;-71
2022/03/05 00:05:37;;;;;;;10.88;6.72;;;1.40;99.90;;;;;;5049888;28;20120;-71
2022/03/05 00:08:03;;;;;;;10.63;6.93;;;1.30;99.90;;;;;;5050165;28;20075;-69
2022/03/05 00:10:30;;;;;;;12.93;7.82;;;1.40;99.90;;;;;;5051638;28;20119;-71
2022/03/05 00:12:56;;;;;;;12.73;7.13;;;1.40;99.90;;;;;;5050123;28;20045;-70
2022/03/05 00:15:23;;;;;;;13.57;7.65;;;1.40;99.90;;;;;;5051301;28;20375;-70
2022/03/05 00:17:49;;;;;;;11.95;6.88;;;1.30;99.90;;;;;;5051499;28;20068;-71
2022/03/05 00:20:15;;;;;;;11.98;6.80;;;1.30;99.90;;;;;;5050091;28;20087;-71
2022/03/05 00:22:41;;;;;;;12.00;7.72;;;1.40;99.90;;;;;;5051285;28;20044;-71
2022/03/05 00:25:07;;;;;;;11.10;7.00;;;1.30;99.90;;;;;;5050294;28;20037;-71
2022/03/05 00:27:33;;;;;;;12.95;8.15;;;1.30;99.90;;;;;;5049980;28;20068;-71
2022/03/05 00:29:58;;;;;;;12.02;7.25;;;1.30;99.90;;;;;;5051383;28;20040;-70
2022/03/05 00:32:24;;;;;;;16.02;7.57;;;1.30;99.90;;;;;;5050246;28;20084;-71
2022/03/05 00:34:50;;;;;;;11.80;7.97;;;1.20;99.90;;;;;;5051084;28;20048;-71
2022/03/05 00:37:16;;;;;;;15.68;7.78;;;1.10;99.90;;;;;;5049450;28;20047;-71
2022/03/05 00:39:41;;;;;;;13.68;7.00;;;1.10;99.90;;;;;;5051263;28;20037;-71
2022/03/05 00:42:07;;;;;;;12.98;7.60;;;1.10;99.90;;;;;;5050097;28;20040;-70
2022/03/05 00:44:33;;;;;;;12.38;7.43;;;1.10;99.90;;;;;;5034256;28;20044;-70
2022/03/05 00:46:58;;;;;;;11.98;7.47;;;1.10;99.90;;;;;;5054304;28;20041;-71
2022/03/05 00:49:24;;;;;;;14.70;7.05;;;1.10;99.90;;;;;;5053422;28;20056;-71
2022/03/05 00:51:52;;;;;;;11.77;7.13;;;1.10;99.90;;;;;;5053401;28;20044;-71
2022/03/05 00:54:19;;;;;;;12.65;7.80;;;1.10;99.90;;;;;;5053465;28;20095;-71
2022/03/05 00:56:45;;;;;;;14.75;8.48;;;1.00;99.90;;;;;;5053169;28;20048;-71
2022/03/05 00:59:10;;;;;;;12.82;8.50;;;1.00;99.90;;;;;;5054703;28;20112;-71
2022/03/05 01:01:36;;;;;;;13.88;9.18;;;1.00;99.90;;;;;;5054503;28;20048;-71
2022/03/05 01:04:02;;;;;;;15.82;9.48;;;1.00;99.90;;;;;;5054384;28;20033;-71
2022/03/05 01:06:30;;;;;;;17.05;9.90;;;1.00;99.90;;;;;;5052957;28;20048;-72
2022/03/05 01:08:56;;;;;;;16.17;9.70;;;0.90;99.90;;;;;;5054553;28;20415;-70
2022/03/05 01:11:22;;;;;;;15.43;10.25;;;0.90;99.90;;;;;;5054868;28;20041;-71
2022/03/05 01:13:47;;;;;;;15.30;10.40;;;0.90;99.90;;;;;;5054314;28;20116;-72
2022/03/05 01:16:13;;;;;;;13.90;9.10;;;0.90;99.90;;;;;;5052536;28;20263;-71
2022/03/05 01:18:39;;;;;;;17.80;9.82;;;0.90;99.90;;;;;;5053049;28;20033;-72
2022/03/05 01:21:04;;;;;;;15.23;9.77;;;0.80;99.90;;;;;;5054507;28;20124;-71
2022/03/05 01:23:30;;;;;;;15.30;9.63;;;0.90;99.90;;;;;;5052837;28;20044;-72
2022/03/05 01:25:56;;;;;;;14.35;9.02;;;0.80;99.90;;;;;;5053801;28;20108;-71
2022/03/05 01:28:21;;;;;;;16.05;8.77;;;0.80;99.90;;;;;;5054056;28;20095;-72
2022/03/05 01:30:47;;;;;;;12.13;9.25;;;0.80;99.90;;;;;;5036352;28;20048;-71
2022/03/05 01:33:17;;;;;;;12.70;8.52;;;0.80;99.90;;;;;;5052803;28;20398;-71
2022/03/05 01:35:44;;;;;;;17.08;9.38;;;0.70;99.90;;;;;;5052249;28;20055;-72
2022/03/05 01:38:09;;;;;;;13.30;8.23;;;0.70;99.90;;;;;;5053993;28;20045;-72
2022/03/05 01:40:35;;;;;;;18.13;10.65;;;0.70;99.90;;;;;;5052556;28;20056;-71
2022/03/05 01:43:01;;;;;;;14.82;8.48;;;0.70;99.90;;;;;;5053615;28;20033;-71
2022/03/05 01:45:27;;;;;;;12.80;8.85;;;0.70;99.90;;;;;;5051974;28;20041;-71
2022/03/05 01:47:52;;;;;;;13.50;7.90;;;0.60;99.90;;;;;;5053431;28;20537;-71
2022/03/05 01:50:18;;;;;;;13.45;8.77;;;0.70;99.90;;;;;;5052329;28;20133;-71
2022/03/05 01:52:43;;;;;;;15.07;9.48;;;0.60;99.90;;;;;;5052517;28;20128;-71
2022/03/05 01:55:12;;;;;;;13.43;7.57;;;0.70;99.90;;;;;;5053541;28;20076;-71
2022/03/05 01:57:38;;;;;;;15.02;8.18;;;0.60;99.90;;;;;;5051302;28;20033;-72
2022/03/05 02:00:05;;;;;;;16.75;8.73;;;0.60;99.90;;;;;;5052062;28;20052;-72
2022/03/05 02:02:31;;;;;;;12.57;8.15;;;0.60;99.90;;;;;;5052136;28;20128;-72
2022/03/05 02:04:57;;;;;;;13.35;7.28;;;0.60;99.90;;;;;;5051984;28;20049;-71
2022/03/05 02:07:23;;;;;;;10.98;7.45;;;0.60;99.90;;;;;;5053101;28;20036;-70
2022/03/05 02:09:49;;;;;;;11.48;7.15;;;0.60;99.90;;;;;;5051899;28;20508;-72
2022/03/05 02:12:14;;;;;;;12.63;7.78;;;0.60;99.90;;;;;;5051918;28;20076;-72
2022/03/05 02:14:40;;;;;;;12.73;7.72;;;0.60;99.90;;;;;;5053154;28;20116;-72
2022/03/05 02:17:06;;;;;;;17.23;7.70;;;0.60;99.90;;;;;;5052515;28;20129;-72
2022/03/05 02:19:31;;;;;;;13.52;7.88;;;0.60;99.90;;;;;;5051824;28;20401;-72
2022/03/05 02:21:57;;;;;;;12.95;7.55;;;0.60;99.90;;;;;;5053075;28;20458;-71
2022/03/05 02:24:31;;;;;;;12.32;7.65;;;0.60;99.90;;;;;;5053060;28;20537;-71
2022/03/05 02:27:04;;;;;;;12.73;7.45;;;0.60;99.90;;;;;;5051480;28;20143;-72
2022/03/05 02:29:34;;;;;;;9.70;7.50;;;0.60;99.90;;;;;;5051756;28;20442;-71
2022/03/05 02:32:00;;;;;;;14.70;7.22;;;0.60;99.90;;;;;;5051462;28;20040;-72
2022/03/05 02:34:26;;;;;;;13.80;7.32;;;0.70;99.90;;;;;;5035083;28;20082;-71
2022/03/05 02:36:52;;;;;;;13.32;7.55;;;0.60;99.90;;;;;;5052452;28;20137;-71
2022/03/05 02:39:18;;;;;;;13.65;7.35;;;0.60;99.90;;;;;;5051346;28;20048;-71
2022/03/05 02:41:44;;;;;;;12.57;7.53;;;0.60;99.90;;;;;;5052562;28;20052;-72
2022/03/05 02:44:10;;;;;;;14.57;8.35;;;0.60;99.90;;;;;;5051196;28;20033;-71
2022/03/05 02:46:35;;;;;;;13.90;7.68;;;0.60;99.90;;;;;;5050682;28;20033;-72
2022/03/05 02:49:03;;;;;;;11.70;7.32;;;0.60;99.90;;;;;;5052631;28;20036;-71
2022/03/05 02:51:29;;;;;;;14.82;8.63;;;0.50;99.90;;;;;;5052525;28;20037;-72
2022/03/05 02:53:55;;;;;;;14.15;7.63;;;0.50;99.90;;;;;;5052406;28;20049;-72
2022/03/05 02:56:21;;;;;;;13.40;7.55;;;0.60;99.90;;;;;;5050704;28;20037;-71
2022/03/05 02:58:46;;;;;;;15.82;8.05;;;0.60;99.90;;;;;;5052188;28;20044;-71
2022/03/05 03:01:12;;;;;;;9.90;6.95;;;0.50;99.90;;;;;;5050853;28;20049;-71
2022/03/05 03:03:38;;;;;;;14.75;8.48;;;0.60;99.90;;;;;;5052223;28;20044;-72
2022/03/05 03:06:05;;;;;;;12.80;7.75;;;0.60;99.90;;;;;;5052041;28;20676;-72
2022/03/05 03:08:31;;;;;;;13.40;7.78;;;0.60;99.90;;;;;;5050695;28;20051;-72
2022/03/05 03:10:57;;;;;;;14.45;8.63;;;0.60;99.90;;;;;;5051073;28;20041;-72
2022/03/05 03:13:23;;;;;;;11.55;6.95;;;0.60;99.90;;;;;;5051911;28;20041;-72
2022/03/05 03:15:48;;;;;;;11.57;6.90;;;0.50;99.90;;;;;;5051576;28;20517;-73
2022/03/05 03:18:16;;;;;;;10.90;6.47;;;0.60;99.90;;;;;;5050706;28;20053;-72
2022/03/05 03:20:42;;;;;;;18.83;7.57;;;0.60;99.90;;;;;;5050624;28;20045;-72
2022/03/05 03:23:08;;;;;;;12.73;6.85;;;0.60;99.90;;;;;;5050663;28;20044;-72
2022/03/05 03:25:34;;;;;;;10.48;7.25;;;0.60;99.90;;;;;;5050496;28;20041;-72
2022/03/05 03:27:59;;;;;;;12.52;6.65;;;0.60;99.90;;;;;;5051739;28;20033;-72
2022/03/05 03:30:25;;;;;;;10.75;6.60;;;0.60;99.90;;;;;;5051944;28;20091;-72
2022/03/05 03:32:50;;;;;;;11.98;7.22;;;0.60;99.90;;;;;;5051833;28;20086;-72
2022/03/05 03:35:16;;;;;;;11.77;6.85;;;0.60;99.90;;;;;;5051696;28;20513;-72
2022/03/05 03:37:43;;;;;;;12.18;6.80;;;0.60;99.90;;;;;;5051669;28;20028;-72
2022/03/05 03:40:11;;;;;;;12.40;7.15;;;0.50;99.90;;;;;;5050597;28;20051;-72
2022/03/05 03:42:37;;;;;;;12.00;6.80;;;0.50;99.90;;;;;;5050279;28;20044;-72
2022/03/05 03:45:04;;;;;;;14.75;7.32;;;0.50;99.90;;;;;;5050318;28;20037;-72
2022/03/05 03:47:30;;;;;;;14.10;7.28;;;0.50;99.90;;;;;;5049906;28;20502;-72
2022/03/05 03:49:56;;;;;;;11.88;7.07;;;0.50;99.90;;;;;;5050333;28;20043;-72
2022/03/05 03:52:22;;;;;;;11.32;6.78;;;0.40;99.90;;;;;;5050286;28;20106;-72
2022/03/05 03:54:49;;;;;;;13.20;6.80;;;0.40;99.90;;;;;;5050318;28;20383;-72
2022/03/05 03:57:15;;;;;;;8.25;5.63;;;0.40;99.90;;;;;;5049845;28;20094;-72
2022/03/05 03:59:41;;;;;;;13.25;6.78;;;0.40;99.90;;;;;;5051560;28;20041;-72
2022/03/05 04:02:07;;;;;;;14.80;7.22;;;0.40;99.90;;;;;;5050275;28;20186;-72
2022/03/05 04:04:32;;;;;;;10.95;6.10;;;0.40;99.90;;;;;;5050227;28;20067;-71
2022/03/05 04:09:42;;;;;;;11.57;6.75;;;0.40;99.90;;;;;;5051271;28;20056;-71
2022/03/05 04:12:08;;;;;;;13.40;6.97;;;0.40;99.90;;;;;;5051626;28;20041;-72
2022/03/05 04:14:34;;;;;;;10.32;7.22;;;0.30;99.90;;;;;;5050294;28;20033;-71
2022/03/05 04:17:00;;;;;;;9.43;6.38;;;0.30;99.90;;;;;;5033394;28;20134;-70
2022/03/05 04:19:26;;;;;;;10.57;6.15;;;0.30;99.90;;;;;;5050630;28;20069;-72
2022/03/05 04:21:51;;;;;;;10.85;6.88;;;0.30;99.90;;;;;;5053927;28;20076;-72
2022/03/05 04:24:17;;;;;;;10.73;6.75;;;0.30;99.90;;;;;;5054078;28;20461;-72
2022/03/05 04:26:43;;;;;;;10.77;6.05;;;0.20;99.90;;;;;;5053758;28;20025;-72
2022/03/05 04:29:08;;;;;;;14.45;7.10;;;0.20;99.90;;;;;;5053785;28;20071;-72
2022/03/05 04:31:34;;;;;;;11.27;6.72;;;0.20;99.90;;;;;;5053968;28;20124;-71
2022/03/05 04:34:00;;;;;;;11.52;6.35;;;0.20;99.90;;;;;;5054950;28;20128;-72
2022/03/05 04:36:25;;;;;;;11.57;5.97;;;0.20;99.90;;;;;;5054604;28;20040;-72
2022/03/05 04:38:51;;;;;;;9.35;6.20;;;0.20;99.90;;;;;;5053537;28;20406;-72
2022/03/05 04:41:17;;;;;;;9.80;6.63;;;0.20;99.90;;;;;;5053507;28;20072;-72
2022/03/05 04:43:42;;;;;;;12.70;6.82;;;0.20;99.90;;;;;;5053766;28;20040;-71
2022/03/05 04:46:08;;;;;;;10.80;7.00;;;0.10;99.90;;;;;;5054464;28;20517;-72
2022/03/05 04:48:34;;;;;;;10.02;6.18;;;0.10;99.90;;;;;;5053495;28;20044;-71
2022/03/05 04:51:00;;;;;;;9.98;5.97;;;0.10;99.90;;;;;;5053729;28;20094;-72
2022/03/05 04:53:26;;;;;;;11.00;6.75;;;0.20;99.90;;;;;;5053522;28;20398;-71
2022/03/05 04:55:51;;;;;;;11.50;6.82;;;0.10;99.90;;;;;;5054233;28;20552;-72
2022/03/05 04:58:17;;;;;;;9.98;6.20;;;0.10;99.90;;;;;;5054651;28;20048;-71
2022/03/05 05:00:43;;;;;;;12.20;6.35;;;0.10;99.90;;;;;;5054558;28;20068;-70
2022/03/05 05:03:09;;;;;;;10.50;6.50;;;0.10;99.90;;;;;;5054529;28;20482;-72
2022/03/05 05:05:34;;;;;;;11.82;6.68;;;0.10;99.90;;;;;;5053120;28;20688;-71
2022/03/05 05:08:00;;;;;;;9.70;6.28;;;0.00;99.90;;;;;;5054224;28;20445;-72
2022/03/05 05:10:26;;;;;;;10.15;6.00;;;0.00;99.90;;;;;;5053087;28;20041;-71
2022/03/05 05:12:51;;;;;;;10.70;6.75;;;0.00;99.90;;;;;;5053213;28;20040;-70
2022/03/05 05:15:17;;;;;;;10.68;6.68;;;0.00;99.90;;;;;;5052954;28;20395;-71
2022/03/05 05:17:43;;;;;;;13.10;7.85;;;-0.10;99.90;;;;;;5052768;28;20128;-72
2022/03/05 05:20:09;;;;;;;10.88;6.25;;;0.00;99.90;;;;;;5052769;28;20120;-71
2022/03/05 05:22:35;;;;;;;8.88;5.63;;;0.00;99.90;;;;;;5052994;28;20102;-72
2022/03/05 05:25:01;;;;;;;10.05;5.90;;;-0.10;99.90;;;;;;5054044;28;20436;-72
2022/03/05 05:27:27;;;;;;;12.00;5.97;;;-0.10;99.90;;;;;;5053647;28;20037;-73
2022/03/05 05:29:53;;;;;;;15.27;6.85;;;-0.10;99.90;;;;;;5054117;28;20037;-72
2022/03/05 05:32:19;;;;;;;11.23;5.82;;;-0.10;99.90;;;;;;5051282;28;20098;-72
2022/03/05 05:34:45;;;;;;;10.98;6.57;;;-0.10;99.90;;;;;;5052741;28;20043;-72
2022/03/05 05:37:10;;;;;;;11.35;6.85;;;-0.20;99.90;;;;;;5052120;28;20037;-73
2022/03/05 05:39:36;;;;;;;13.63;6.63;;;-0.10;99.90;;;;;;5035992;28;20037;-73
2022/03/05 05:42:02;;;;;;;11.68;6.88;;;-0.20;99.90;;;;;;5052406;28;20064;-74
2022/03/05 05:44:28;;;;;;;12.27;6.40;;;-0.10;99.90;;;;;;5052717;28;20087;-73
2022/03/05 05:46:54;;;;;;;10.48;6.00;;;-0.10;99.90;;;;;;5053250;28;20064;-72
2022/03/05 05:49:20;;;;;;;12.43;6.63;;;-0.10;99.90;;;;;;5052407;28;20040;-73
2022/03/05 05:51:45;;;;;;;14.18;6.60;;;-0.20;99.90;;;;;;5052125;28;20037;-73
2022/03/05 05:54:11;;;;;;;10.10;7.38;;;-0.20;99.90;;;;;;5052208;28;20107;-73
2022/03/05 05:56:37;;;;;;;11.50;6.53;;;-0.10;99.90;;;;;;5052080;28;20071;-71
2022/03/05 05:59:04;;;;;;;11.18;6.85;;;-0.10;99.90;;;;;;5052152;28;20045;-72
2022/03/05 06:01:30;;;;;;;13.30;6.53;;;-0.10;99.90;;;;;;5052058;28;20098;-72
2022/03/05 06:03:56;;;;;;;10.15;6.57;;;-0.10;99.90;;;;;;5052279;28;20037;-73
2022/03/05 06:06:22;;;;;;;12.40;6.95;;;-0.10;99.90;;;;;;5035166;28;20044;-72
2022/03/05 06:08:48;;;;;;;11.23;6.50;;;-0.10;99.90;;;;;;5053480;28;20032;-73
2022/03/05 06:11:14;;;;;;;8.80;6.68;;;-0.10;99.90;;;;;;5051921;28;20041;-72
2022/03/05 06:13:40;;;;;;;11.10;6.95;;;-0.10;99.90;;;;;;5052017;28;20055;-73
2022/03/05 06:16:06;;;;;;;10.25;6.75;;;0.00;99.90;;;;;;5051610;28;20047;-72
2022/03/05 06:18:32;;;;;;;10.93;6.38;;;-0.10;99.90;;;;;;5052064;28;20040;-73
2022/03/05 06:20:57;;;;;;;9.82;6.13;;;-0.10;99.90;;;;;;5051368;28;20056;-72
2022/03/05 06:23:23;;;;;;;10.88;6.97;;;-0.10;99.90;;;;;;5051721;28;20029;-72
2022/03/05 06:25:51;;;;;;;10.82;7.35;;;-0.10;99.90;;;;;;5052595;28;20036;-72
2022/03/05 06:28:16;;;;;;;11.95;6.80;;;-0.10;99.90;;;;;;5035204;28;20033;-72
2022/03/05 06:30:42;;;;;;;9.98;6.05;;;-0.10;99.90;;;;;;5052816;28;20048;-72
2022/03/05 06:33:08;;;;;;;11.30;7.35;;;-0.10;99.90;;;;;;5051460;28;20037;-72
2022/03/05 06:35:33;;;;;;;11.27;6.20;;;-0.10;99.90;;;;;;5051055;28;20072;-72
2022/03/05 06:37:59;;;;;;;10.60;7.15;;;-0.10;99.90;;;;;;5051012;28;20037;-69
2022/03/05 06:40:24;;;;;;;12.93;7.55;;;-0.10;99.90;;;;;;5051689;28;20405;-70
2022/03/05 06:42:50;;;;;;;10.45;7.20;;;-0.10;99.90;;;;;;5049023;28;20045;-70
2022/03/05 06:45:16;;;;;;;15.38;6.72;;;-0.10;99.90;;;;;;5052090;28;20044;-69
2022/03/05 06:47:41;;;;;;;12.73;6.68;;;0.00;99.90;;;;;;5050844;28;20123;-70
2022/03/05 06:50:09;;;;;;;12.00;7.35;;;0.00;99.90;;;;;;5050982;28;20037;-69
2022/03/05 06:52:35;;;;;;;11.18;7.30;;;0.00;99.90;;;;;;5052316;28;20048;-70
2022/03/05 06:55:01;;;;;;;11.73;7.20;;;0.00;99.90;;;;;;5052365;28;20510;-70
2022/03/05 06:57:26;;;;;;;12.07;7.00;;;0.00;99.90;;;;;;5050515;28;20068;-70
2022/03/05 06:59:53;;;;;;;11.93;7.32;;;0.10;99.90;;;;;;5052031;28;20094;-69
2022/03/05 07:02:19;;;;;;;15.02;7.80;;;0.20;99.90;;;;;;5034101;28;20040;-70
2022/03/05 07:04:44;;;;;;;11.88;7.95;;;0.20;99.90;;;;;;5051878;28;20047;-70
2022/03/05 07:07:10;;;;;;;14.30;8.32;;;0.40;99.90;;;;;;5050395;28;20099;-69
2022/03/05 07:09:36;;;;;;;14.25;7.97;;;0.60;99.90;;;;;;5050698;28;20045;-70
2022/03/05 07:12:02;;;;;;;13.20;8.27;;;0.70;99.90;;;;;;5050823;28;20041;-70
2022/03/05 07:14:27;;;;;;;17.10;8.60;;;0.80;99.90;;;;;;5051006;28;20457;-70
2022/03/05 07:16:54;;;;;;;15.85;8.65;;;1.00;99.90;;;;;;5051657;28;20040;-69
2022/03/05 07:19:20;;;;;;;15.27;9.20;;;1.10;99.90;;;;;;5034043;28;20148;-69
2022/03/05 07:21:45;;;;;;;14.75;8.80;;;1.30;99.90;;;;;;5050322;28;20569;-69
2022/03/05 07:24:11;;;;;;;17.15;8.25;;;1.40;99.90;;;;;;5051847;28;20040;-69
2022/03/05 07:26:37;;;;;;;15.07;9.00;;;1.50;99.90;;;;;;5050197;28;20124;-68
2022/03/05 07:29:03;;;;;;;15.90;8.45;;;1.60;99.90;;;;;;5050861;28;20040;-70
2022/03/05 07:31:28;;;;;;;14.15;8.23;;;1.60;99.90;;;;;;5051653;28;20048;-68
2022/03/05 07:33:54;;;;;;;11.93;7.78;;;1.80;99.90;;;;;;5051464;28;20624;-68
2022/03/05 07:36:20;;;;;;;14.95;8.30;;;1.90;99.90;;;;;;5050064;28;20037;-68
2022/03/05 07:38:46;;;;;;;15.70;9.02;;;2.00;99.90;;;;;;5051802;28;20390;-67
2022/03/05 07:41:13;;;;;;;14.88;8.80;;;2.10;99.90;;;;;;5050249;28;20048;-68
2022/03/05 07:43:39;;;;;;;15.48;8.95;;;2.20;99.90;;;;;;5051632;28;20158;-67
2022/03/05 07:46:05;;;;;;;17.40;9.63;;;2.20;99.90;;;;;;5049706;28;20082;-68
2022/03/05 07:48:31;;;;;;;17.90;9.48;;;2.30;99.90;;;;;;5051371;28;20134;-67
2022/03/05 07:50:59;;;;;;;16.90;9.00;;;2.40;99.90;;;;;;5051432;28;20048;-67
2022/03/05 07:53:27;;;;;;;18.35;9.38;;;2.40;99.90;;;;;;5050256;28;20663;-67
2022/03/05 07:55:53;;;;;;;14.63;9.13;;;2.50;99.90;;;;;;5052918;28;20461;-68
2022/03/05 07:58:18;;;;;;;15.50;9.00;;;2.60;99.90;;;;;;5055592;28;20040;-68
2022/03/05 08:00:44;;;;;;;16.05;9.02;;;2.70;99.90;;;;;;5037595;28;20045;-67
2022/03/05 08:03:10;;;;;;;14.30;9.18;;;2.80;99.90;;;;;;5054028;28;20123;-68
2022/03/05 08:05:35;;;;;;;17.70;11.00;;;2.90;99.90;;;;;;5055257;28;20033;-67
2022/03/05 08:08:01;;;;;;;14.82;9.10;;;3.00;99.90;;;;;;5055493;28;20684;-69
2022/03/05 08:10:27;;;;;;;15.98;10.43;;;3.00;99.90;;;;;;5054350;28;20076;-71
2022/03/05 08:12:52;;;;;;;20.52;9.90;;;3.10;99.90;;;;;;5053954;28;20040;-70
2022/03/05 08:15:18;;;;;;;14.13;9.35;;;3.20;99.90;;;;;;5053799;28;20406;-70
2022/03/05 08:17:58;;;;;;;15.68;8.90;;;3.10;99.90;;;;;;5053865;28;20041;-70
2022/03/05 08:20:27;;;;;;;15.50;9.60;;;3.20;99.90;;;;;;5053869;28;20045;-70
2022/03/05 08:22:53;;;;;;;16.15;9.50;;;3.30;99.90;;;;;;5053830;28;20041;-67
2022/03/05 08:25:19;;;;;;;15.20;8.95;;;3.30;99.90;;;;;;5054883;28;20494;-67
2022/03/05 08:27:45;;;;;;;13.70;9.50;;;3.30;99.90;;;;;;5054868;28;20037;-67
2022/03/05 08:30:11;;;;;;;15.07;8.65;;;3.60;99.90;;;;;;5053667;28;20087;-67
2022/03/05 08:32:38;;;;;;;17.50;9.73;;;3.60;99.90;;;;;;5053791;28;20032;-68
2022/03/05 08:35:05;;;;;;;15.10;9.00;;;3.60;99.90;;;;;;5053246;28;20037;-68
2022/03/05 08:37:31;;;;;;;15.38;9.40;;;3.70;99.90;;;;;;5053439;28;20077;-68
2022/03/05 08:39:57;;;;;;;15.73;9.48;;;3.70;99.90;;;;;;5054687;28;20037;-67
2022/03/05 08:42:23;;;;;;;14.35;8.90;;;3.70;99.90;;;;;;5054846;28;20040;-68
2022/03/05 08:44:49;;;;;;;13.80;8.93;;;3.70;99.90;;;;;;5054691;28;20106;-67
2022/03/05 08:47:14;;;;;;;14.65;9.43;;;3.60;99.90;;;;;;5052850;28;20041;-67
2022/03/05 08:49:40;;;;;;;15.20;8.68;;;3.70;99.90;;;;;;5053339;28;20099;-67
2022/03/05 08:52:06;;;;;;;16.60;9.25;;;3.80;99.80;;;;;;5054654;28;20041;-68
2022/03/05 08:54:31;;;;;;;16.02;9.10;;;3.80;99.70;;;;;;5053185;28;20481;-67
2022/03/05 08:56:57;;;;;;;13.65;8.90;;;3.80;99.70;;;;;;5052762;28;20032;-67
2022/03/05 08:59:23;;;;;;;16.92;8.63;;;3.80;99.20;;;;;;5054395;28;20110;-67
2022/03/05 09:01:48;;;;;;;14.20;8.32;;;3.80;99.00;;;;;;5054536;28;20084;-67
2022/03/05 09:04:14;;;;;;;15.00;8.35;;;3.90;99.30;;;;;;5054504;28;20451;-67
2022/03/05 09:06:40;;;;;;;15.23;9.35;;;3.90;99.20;;;;;;5052553;28;20123;-67
2022/03/05 09:09:06;;;;;;;13.90;8.23;;;3.80;99.60;;;;;;5053047;28;20037;-67
2022/03/05 09:11:32;;;;;;;13.30;8.95;;;3.80;99.40;;;;;;5054066;28;20037;-68
2022/03/05 09:13:58;;;;;;;14.02;8.88;;;3.90;99.30;;;;;;5036459;28;20507;-68
2022/03/05 09:16:24;;;;;;;14.55;9.48;;;3.80;99.10;;;;;;5052686;28;20380;-68
2022/03/05 09:18:50;;;;;;;16.38;9.20;;;3.90;99.10;;;;;;5052794;28;20051;-68
2022/03/05 09:21:15;;;;;;;18.15;9.15;;;3.80;98.90;;;;;;5052651;28;20429;-68
2022/03/05 09:23:41;;;;;;;17.00;9.95;;;3.80;99.10;;;;;;5052753;28;20049;-68
2022/03/05 09:26:06;;;;;;;14.82;9.80;;;3.80;99.00;;;;;;5053487;28;20037;-68
2022/03/05 09:28:32;;;;;;;17.20;9.82;;;3.80;99.00;;;;;;5053901;28;20069;-68
2022/03/05 09:30:58;;;;;;;17.60;10.02;;;3.80;98.90;;;;;;5052602;28;20064;-68
2022/03/05 09:33:25;;;;;;;15.27;9.57;;;3.80;99.00;;;;;;5052866;28;20040;-68
2022/03/05 09:35:51;;;;;;;21.33;10.23;;;3.80;98.90;;;;;;5052204;28;20487;-68
2022/03/05 09:38:18;;;;;;;15.73;8.55;;;3.90;98.90;;;;;;5052438;28;20069;-71
2022/03/05 09:40:44;;;;;;;16.58;10.18;;;3.90;99.30;;;;;;5050523;28;20045;-68
2022/03/05 09:43:12;;;;;;;18.42;9.90;;;4.00;99.00;;;;;;5062773;28;20687;-68
2022/03/05 09:45:38;;;;;;;15.40;8.93;;;4.00;98.60;;;;;;5070401;28;20211;-68
2022/03/05 09:48:04;;;;;;;19.73;10.48;;;4.10;98.90;;;;;;5045318;28;20116;-68
2022/03/05 09:50:32;;;;;;;22.05;11.43;;;4.00;97.90;;;;;;5073451;28;20486;-67
2022/03/05 09:52:58;;;;;;;16.17;10.82;;;4.00;97.80;;;;;;5073432;28;20083;-68
2022/03/05 09:55:24;;;;;;;16.50;10.07;;;4.10;97.90;;;;;;5072950;28;20055;-68
2022/03/05 09:57:50;;;;;;;18.05;10.63;;;4.10;97.10;;;;;;5073478;28;20037;-67
2022/03/05 10:00:16;;;;;;;17.40;10.82;;;4.10;97.20;;;;;;5072724;28;20181;-68
2022/03/05 10:02:45;;;;;;;15.88;9.85;;;4.10;97.10;;;;;;5064929;28;20044;-67
2022/03/05 10:05:16;;;;;;;18.70;11.23;;;4.10;97.20;;;;;;5073154;28;20064;-68
2022/03/05 10:07:58;;;;;;;19.15;12.00;;;4.20;97.20;;;;;;5062100;28;20046;-67
2022/03/05 10:10:23;;;;;;;21.60;11.60;;;4.20;96.70;;;;;;5033429;28;20184;-68
2022/03/05 10:12:49;;;;;;;17.90;10.57;;;4.20;96.40;;;;;;5015381;28;20520;-68
2022/03/05 10:15:21;;;;;;;19.83;11.63;;;4.20;95.90;;;;;;5031839;28;20060;-67
2022/03/05 10:17:54;;;;;;;21.45;11.85;;;4.30;95.80;;;;;;5032295;28;20052;-66
2022/03/05 10:20:26;;;;;;;19.52;11.40;;;4.30;95.90;;;;;;5032829;28;20069;-67
2022/03/05 10:22:55;;;;;;;19.15;11.27;;;4.30;96.30;;;;;;5031696;28;20037;-67
2022/03/05 10:25:51;;;;;;;20.15;12.10;;;4.40;96.10;;;;;;5031376;28;20049;-67
2022/03/05 10:28:19;;;;;;;21.92;11.50;;;4.30;94.70;;;;;;5032168;28;20085;-67
2022/03/05 10:30:50;;;;;;;19.83;11.63;;;4.40;94.80;;;;;;5031630;28;20514;-67
2022/03/05 10:33:34;;;;;;;20.02;11.95;;;4.30;94.20;;;;;;5031539;28;20038;-67
2022/03/05 10:36:02;;;;;;;21.58;11.70;;;4.40;94.30;;;;;;5031151;28;20041;-67
2022/03/05 10:38:47;;;;;;;18.60;11.70;;;4.40;94.70;;;;;;5032760;28;20421;-67
2022/03/05 10:41:40;;;;;;;18.60;9.80;;;4.40;94.40;;;;;;5032361;28;20044;-67
2022/03/05 10:44:15;;;;;;;18.65;11.30;;;4.50;94.10;;;;;;5031263;28;20053;-68
2022/03/05 10:46:46;;;;;;;20.55;11.07;;;4.50;93.80;;;;;;5030678;28;20470;-68
2022/03/05 10:49:23;;;;;;;20.08;12.20;;;4.60;93.80;;;;;;5032552;28;20056;-68
2022/03/05 10:52:09;;;;;;;22.88;11.27;;;4.50;93.40;;;;;;5032434;28;20045;-68
2022/03/05 10:54:42;;;;;;;21.17;11.68;;;4.60;93.70;;;;;;5014811;28;20492;-68
2022/03/05 10:57:17;;;;;;;21.42;12.65;;;4.70;93.40;;;;;;5032196;28;20171;-70
2022/03/05 10:59:47;;;;;;;21.10;11.05;;;4.70;93.00;;;;;;5032367;28;20447;-69
2022/03/05 11:02:18;;;;;;;18.50;10.98;;;4.70;93.10;;;;;;5030858;28;20076;-69
2022/03/05 11:04:44;;;;;;;20.58;11.00;;;4.70;93.40;;;;;;5031134;28;20037;-69
2022/03/05 11:07:11;;;;;;;19.05;10.45;;;4.70;93.30;;;;;;5032027;28;20683;-68
2022/03/05 11:09:40;;;;;;;21.00;11.90;;;4.80;93.80;;;;;;5030963;28;20041;-69
2022/03/05 11:12:09;;;;;;;21.40;11.20;;;4.90;93.10;;;;;;5031988;28;20047;-69
2022/03/05 11:14:39;;;;;;;21.05;10.68;;;4.90;92.60;;;;;;5030623;28;20080;-69
2022/03/05 11:17:05;;;;;;;18.20;10.27;;;4.90;92.00;;;;;;5030481;28;20083;-68
2022/03/05 11:19:31;;;;;;;19.48;11.52;;;5.00;91.90;;;;;;5030736;28;20410;-68
2022/03/05 11:21:57;;;;;;;20.65;12.13;;;5.00;91.40;;;;;;5031974;28;20037;-69
2022/03/05 11:24:24;;;;;;;20.63;11.07;;;5.00;91.00;;;;;;5032013;28;20052;-68
2022/03/05 11:26:52;;;;;;;22.08;12.25;;;5.10;91.30;;;;;;5031511;28;20487;-69
2022/03/05 11:29:19;;;;;;;18.75;10.82;;;5.10;91.10;;;;;;5030439;28;20041;-69
2022/03/05 11:31:47;;;;;;;19.55;12.52;;;5.10;91.20;;;;;;5030830;28;20119;-69
2022/03/05 11:34:18;;;;;;;20.00;11.65;;;5.20;91.60;;;;;;5031964;28;20088;-69
2022/03/05 11:36:46;;;;;;;23.83;11.18;;;5.20;91.00;;;;;;5030420;28;20128;-68
2022/03/05 11:39:17;;;;;;;20.33;11.20;;;5.30;91.70;;;;;;5031861;28;20099;-67
2022/03/05 11:42:02;;;;;;;19.35;10.55;;;5.30;91.60;;;;;;5030285;28;20569;-67
2022/03/05 11:44:39;;;;;;;19.85;12.02;;;5.40;90.40;;;;;;5030503;28;20072;-67
2022/03/05 11:47:35;;;;;;;23.05;12.73;;;5.50;90.70;;;;;;5031279;28;20479;-68
2022/03/05 11:50:02;;;;;;;19.80;10.25;;;5.50;89.40;;;;;;5031548;28;20095;-67
2022/03/05 11:52:43;;;;;;;18.77;10.05;;;5.50;88.70;;;;;;5031639;28;20054;-68
2022/03/05 11:55:11;;;;;;;21.42;12.90;;;5.60;89.10;;;;;;5030123;28;20052;-68
2022/03/05 11:57:38;;;;;;;21.60;12.05;;;5.60;88.60;;;;;;5030119;28;20125;-68
2022/03/05 12:00:06;;;;;;;21.33;10.68;;;5.60;87.50;;;;;;5031502;28;20060;-68
2022/03/05 12:02:50;;;;;;;22.83;12.27;;;5.60;87.70;;;;;;5030216;28;20033;-67
2022/03/05 12:05:37;;;;;;;21.27;11.95;;;5.70;86.40;;;;;;5031641;28;20041;-68
2022/03/05 12:08:08;;;;;;;19.40;11.32;;;5.70;85.10;;;;;;5030272;28;20129;-71
2022/03/05 12:10:34;;;;;;;20.92;12.02;;;5.80;85.00;;;;;;5028816;28;20045;-65
2022/03/05 12:13:05;;;;;;;18.63;11.85;;;5.90;84.90;;;;;;5039854;28;20119;-66
2022/03/05 12:15:34;;;;;;;21.00;12.18;;;6.00;82.90;;;;;;5050872;28;20128;-66
2022/03/05 12:18:01;;;;;;;19.45;11.90;;;6.10;82.80;;;;;;5051199;28;20041;-66
2022/03/05 12:20:34;;;;;;;18.75;11.15;;;6.30;83.40;;;;;;5051300;28;20041;-66
2022/03/05 12:23:23;;;;;;;21.02;11.90;;;6.40;82.90;;;;;;5051376;28;20037;-67
2022/03/05 12:25:49;;;;;;;21.80;12.43;;;6.40;81.20;;;;;;5050295;28;20057;-66
2022/03/05 12:28:21;;;;;;;20.55;10.90;;;6.30;81.00;;;;;;5051271;28;20243;-66
2022/03/05 12:30:47;;;;;;;21.52;12.05;;;6.30;79.50;;;;;;5051343;28;20087;-66
2022/03/05 12:33:18;;;;;;;22.15;13.60;;;6.40;79.50;;;;;;5050991;28;20494;-66
2022/03/05 12:35:45;;;;;;;21.50;13.50;;;6.50;79.30;;;;;;5050687;28;20044;-66
2022/03/05 12:38:16;;;;;;;20.80;11.20;;;6.50;78.60;;;;;;5051301;28;20072;-66
2022/03/05 12:40:42;;;;;;;22.63;12.20;;;6.40;78.40;;;;;;5052174;28;20052;-66
2022/03/05 12:43:08;;;;;;;22.70;12.82;;;6.50;77.90;;;;;;5053745;28;20029;-66
2022/03/05 12:45:39;;;;;;;20.80;12.05;;;6.50;77.60;;;;;;5054289;28;20037;-66